logo
Search for airport 
image banner adimage banner adimage banner ad
image banner ad

FAWV - White River

Located in , South Africa

ICAO - , IATA -

Data provided by Airmate  

General information

Coordinates: S25°19'38" E30°58'38"
Elevation is 2965 feet MSL.
 
View others Airports in Mpumalanga

Operational data

Special qualification required
Current time UTC:
Current local time:
METAR: FAKN 220700Z AUTO 24003KT //// // ////// 18/14 Q1030
TAF: TAF FAKN 220600Z 2207/2218 VRB03KT 9999 SCT030 TX22/2213Z TN17/2218Z
View NOTAMs / SUP AIP / TFR affecting this airport [VIEW]
Communications frequencies: [VIEW]

Runways:

RWY identifierQFULength (ft)Width (ft)SurfaceLDA (ft)
1029°164066SAND
28209°164066SAND

Airport contact information

Address: South Africa

Satellite view of FAWV